createdAt,value
2018-07-28T00:00:38.710Z,26.25
2018-07-28T00:01:44.232Z,26.15
2018-07-28T00:02:49.748Z,26.18
2018-07-28T00:03:55.272Z,26.09
2018-07-28T00:05:00.796Z,26.09
2018-07-28T00:06:06.348Z,26.15
2018-07-28T00:07:11.838Z,26.11
2018-07-28T00:08:17.358Z,26.11
2018-07-28T00:09:22.869Z,26.18
2018-07-28T00:10:28.400Z,26.11
2018-07-28T00:11:33.916Z,26.08
2018-07-28T00:12:39.439Z,25.97
2018-07-28T00:13:44.952Z,25.97
2018-07-28T00:14:50.480Z,26.04
2018-07-28T00:15:56.027Z,25.93
2018-07-28T00:17:01.525Z,25.86
2018-07-28T00:18:07.039Z,25.84
2018-07-28T00:19:12.555Z,25.90
2018-07-28T00:20:18.082Z,25.89
2018-07-28T00:21:23.600Z,25.86
2018-07-28T00:22:30.019Z,25.87
2018-07-28T00:23:34.644Z,25.86
2018-07-28T00:24:40.162Z,25.83
2018-07-28T00:25:45.684Z,25.87
2018-07-28T00:26:51.202Z,25.83
2018-07-28T00:27:56.719Z,25.87
2018-07-28T00:29:02.244Z,25.86
2018-07-28T00:30:07.762Z,25.84
2018-07-28T00:31:13.288Z,25.82
2018-07-28T00:32:18.809Z,25.84
2018-07-28T00:33:24.335Z,25.79
2018-07-28T00:34:29.844Z,25.87
2018-07-28T00:35:35.364Z,25.87
2018-07-28T00:36:40.890Z,25.75
2018-07-28T00:37:46.406Z,25.77
2018-07-28T00:38:51.929Z,25.83
2018-07-28T00:39:57.450Z,25.79
2018-07-28T00:41:02.969Z,25.86
2018-07-28T00:42:08.492Z,25.84
2018-07-28T00:43:14.011Z,25.83
2018-07-28T00:44:19.531Z,25.86
2018-07-28T00:45:25.051Z,25.86
2018-07-28T00:46:30.568Z,25.80
2018-07-28T00:47:36.097Z,25.83
2018-07-28T00:48:41.610Z,25.86
2018-07-28T00:49:47.131Z,25.86
2018-07-28T00:50:52.651Z,25.86
2018-07-28T00:51:58.170Z,25.89
2018-07-28T00:53:03.692Z,25.86
2018-07-28T00:54:09.215Z,25.86
2018-07-28T00:55:14.737Z,25.89
2018-07-28T00:56:20.272Z,25.94
2018-07-28T00:57:25.776Z,25.99
2018-07-28T00:58:31.293Z,26.04
2018-07-28T00:59:36.813Z,25.99
2018-07-28T01:00:42.337Z,26.05
2018-07-28T01:01:47.856Z,26.01
2018-07-28T01:02:53.380Z,26.11
2018-07-28T01:03:58.917Z,26.17
2018-07-28T01:05:04.417Z,26.08
2018-07-28T01:06:09.944Z,26.11
2018-07-28T01:07:15.459Z,26.15
2018-07-28T01:08:20.980Z,26.11
2018-07-28T01:09:26.500Z,26.09
2018-07-28T01:10:32.024Z,26.15
2018-07-28T01:11:37.543Z,26.12
2018-07-28T01:12:43.070Z,26.11
2018-07-28T01:13:48.601Z,26.09
2018-07-28T01:14:54.099Z,26.15
2018-07-28T01:15:59.625Z,26.20
2018-07-28T01:17:05.146Z,26.25
2018-07-28T01:18:10.666Z,26.27
2018-07-28T01:19:16.183Z,26.27
2018-07-28T01:20:21.706Z,26.15
2018-07-28T01:21:27.225Z,26.24
2018-07-28T01:22:32.749Z,26.22
2018-07-28T01:23:38.266Z,26.20
2018-07-28T01:24:43.788Z,26.18
2018-07-28T01:25:49.316Z,26.24
2018-07-28T01:26:54.830Z,26.20
2018-07-28T01:28:00.351Z,26.29
2018-07-28T01:29:05.871Z,26.27
2018-07-28T01:30:11.395Z,26.29
2018-07-28T01:31:16.912Z,26.28
2018-07-28T01:32:22.431Z,26.29
2018-07-28T01:33:27.954Z,26.21
2018-07-28T01:34:33.474Z,26.24
2018-07-28T01:35:38.996Z,26.28
2018-07-28T01:36:44.519Z,26.22
2018-07-28T01:37:50.035Z,26.25
2018-07-28T01:38:55.576Z,26.27
2018-07-28T01:40:01.079Z,26.28
2018-07-28T01:41:06.598Z,26.29
2018-07-28T01:42:12.132Z,26.25
2018-07-28T01:43:17.660Z,26.35
2018-07-28T01:44:23.161Z,26.37
2018-07-28T01:45:28.680Z,26.37
2018-07-28T01:46:34.197Z,26.36
2018-07-28T01:47:39.724Z,26.36
2018-07-28T01:48:45.241Z,26.31
2018-07-28T01:49:50.760Z,26.32
2018-07-28T01:50:56.287Z,26.36
2018-07-28T01:52:01.802Z,26.42
2018-07-28T01:53:07.320Z,26.44
2018-07-28T01:54:12.840Z,26.39
2018-07-28T01:55:18.364Z,26.49
2018-07-28T01:56:23.884Z,26.47
2018-07-28T01:57:29.405Z,26.44
2018-07-28T01:58:34.936Z,26.47
2018-07-28T01:59:40.475Z,26.49
2018-07-28T02:00:45.970Z,26.49
2018-07-28T02:01:51.485Z,26.49
2018-07-28T02:02:57.009Z,26.59
2018-07-28T02:04:02.527Z,26.50
2018-07-28T02:05:08.052Z,26.52
2018-07-28T02:08:05.473Z,26.49
2018-07-28T02:08:53.397Z,26.49
2018-07-28T02:09:47.668Z,26.55
2018-07-28T02:10:59.865Z,26.58
2018-07-28T02:12:18.104Z,26.50
2018-07-28T02:13:12.171Z,26.46
2018-07-28T02:14:46.281Z,26.50
2018-07-28T02:15:17.305Z,26.50
2018-07-28T02:16:24.277Z,26.44
2018-07-28T02:17:47.636Z,26.50
2018-07-28T02:18:53.586Z,26.43
2018-07-28T02:19:55.440Z,26.50
2018-07-28T02:21:52.592Z,26.43
2018-07-28T02:23:10.628Z,26.49
2018-07-28T02:24:25.792Z,26.42
2018-07-28T02:25:08.291Z,26.43
2018-07-28T02:26:20.379Z,26.43
2018-07-28T02:28:28.700Z,26.35
2018-07-28T02:29:29.619Z,26.32
2018-07-28T02:30:34.746Z,26.36
2018-07-28T02:31:56.777Z,26.29
2018-07-28T02:33:01.898Z,26.20
2018-07-28T02:33:53.714Z,26.24
2018-07-28T02:34:51.828Z,26.21
2018-07-28T02:36:28.346Z,26.25
2018-07-28T02:38:26.936Z,26.12
2018-07-28T02:39:37.486Z,26.15
2018-07-28T02:40:34.423Z,26.09
2018-07-28T02:41:43.542Z,26.12
2018-07-28T02:42:36.688Z,26.09
2018-07-28T02:43:38.743Z,26.02
2018-07-28T02:44:58.821Z,26.05
2018-07-28T02:45:58.113Z,26.01
2018-07-28T02:46:56.075Z,25.98
2018-07-28T02:48:09.807Z,25.98
2018-07-28T02:49:26.303Z,25.98
2018-07-28T02:51:25.913Z,25.98
2018-07-28T02:52:35.346Z,25.91
2018-07-28T02:53:38.728Z,25.87
2018-07-28T02:54:37.714Z,25.87
2018-07-28T02:55:46.933Z,25.86
2018-07-28T02:56:46.943Z,25.90
2018-07-28T02:58:04.062Z,25.90
2018-07-28T02:58:58.335Z,25.84
2018-07-28T03:00:01.206Z,25.83
2018-07-28T03:01:07.259Z,25.86
2018-07-28T03:02:11.362Z,25.86
2018-07-28T03:03:25.451Z,25.84
2018-07-28T03:04:36.876Z,25.75
2018-07-28T03:05:30.434Z,25.77
2018-07-28T03:06:38.737Z,25.79
2018-07-28T03:07:45.917Z,25.69
2018-07-28T03:08:42.852Z,25.79
2018-07-28T03:09:45.521Z,25.71
2018-07-28T03:11:00.897Z,25.74
2018-07-28T03:12:02.843Z,25.68
2018-07-28T03:13:03.985Z,25.79
2018-07-28T03:14:34.300Z,25.74
2018-07-28T03:15:31.543Z,25.77
2018-07-28T03:16:28.274Z,25.64
2018-07-28T03:17:39.754Z,25.69
2018-07-28T03:18:37.608Z,25.75
2018-07-28T03:20:51.453Z,25.59
2018-07-28T03:21:57.192Z,25.68
2018-07-28T03:23:06.723Z,25.53
2018-07-28T03:26:18.221Z,25.68
2018-07-28T03:27:22.223Z,25.56
2018-07-28T03:28:39.438Z,25.59
2018-07-28T03:29:35.554Z,25.56
2018-07-28T03:30:50.718Z,25.61
2018-07-28T03:32:49.911Z,25.42
2018-07-28T03:33:59.856Z,25.46
2018-07-28T03:35:06.623Z,25.50
2018-07-28T03:36:06.631Z,25.43
2018-07-28T03:37:18.112Z,25.46
2018-07-28T03:38:24.167Z,25.35
2018-07-28T03:39:32.464Z,25.35
2018-07-28T03:40:37.285Z,25.30
2018-07-28T03:41:42.516Z,25.28
2018-07-28T03:43:42.637Z,25.24
2018-07-28T03:45:59.753Z,25.15
2018-07-28T03:47:11.947Z,25.16
2018-07-28T03:48:14.519Z,25.07
2018-07-28T03:50:28.154Z,25.12
2018-07-28T03:51:36.357Z,25.00
2018-07-28T03:52:33.503Z,25.00
2018-07-28T03:53:41.393Z,25.06
2018-07-28T03:54:44.164Z,25.09
2018-07-28T03:55:49.703Z,25.19
2018-07-28T03:57:13.774Z,25.19
2018-07-28T03:57:58.224Z,25.25
2018-07-28T03:59:07.959Z,25.30
2018-07-28T04:00:19.744Z,25.25
2018-07-28T04:01:24.256Z,25.39
2018-07-28T04:03:39.843Z,25.32
2018-07-28T04:04:34.424Z,25.37
2018-07-28T04:06:47.444Z,25.49
2018-07-28T04:07:50.526Z,25.46
2018-07-28T04:08:57.087Z,25.43
2018-07-28T04:10:05.906Z,25.39
2018-07-28T04:11:05.809Z,25.56
2018-07-28T04:12:15.543Z,25.68
2018-07-28T04:13:25.279Z,25.67
2018-07-28T04:14:14.434Z,25.57
2018-07-28T04:15:19.872Z,25.65
2018-07-28T04:16:38.209Z,25.61
2018-07-28T04:17:31.053Z,25.68
2018-07-28T04:18:36.389Z,25.67
2018-07-28T04:19:42.540Z,25.79
2018-07-28T04:20:55.760Z,25.72
2018-07-28T04:22:07.240Z,25.75
2018-07-28T04:24:19.040Z,25.72
2018-07-28T04:25:15.668Z,25.72
2018-07-28T04:27:26.334Z,25.69
2018-07-28T04:28:25.755Z,25.80
2018-07-28T04:29:48.162Z,25.86
2018-07-28T04:30:56.467Z,25.86
2018-07-28T04:31:47.670Z,25.84
2018-07-28T04:33:01.709Z,25.87
2018-07-28T04:34:04.686Z,25.89
2018-07-28T04:35:08.180Z,25.83
2018-07-28T04:36:10.541Z,25.90
2018-07-28T04:37:14.858Z,25.90
2018-07-28T04:38:27.251Z,25.87
2018-07-28T04:39:25.320Z,25.89
2018-07-28T04:40:37.919Z,25.86
2018-07-28T04:41:44.387Z,25.89
2018-07-28T04:42:54.526Z,25.98
2018-07-28T04:43:47.569Z,25.98
2018-07-28T04:45:02.532Z,25.86
2018-07-28T04:45:58.544Z,25.86
2018-07-28T04:47:11.455Z,25.91
2018-07-28T04:48:06.755Z,25.94
2018-07-28T04:49:22.126Z,26.01
2018-07-28T04:52:33.622Z,26.04
2018-07-28T04:53:41.927Z,25.93
2018-07-28T04:54:44.292Z,25.97
2018-07-28T04:55:57.205Z,25.84
2018-07-28T04:56:54.756Z,26.02
2018-07-28T04:59:02.761Z,26.02
2018-07-28T05:00:17.818Z,25.99
2018-07-28T05:01:24.596Z,25.97
2018-07-28T05:02:18.257Z,25.99
2018-07-28T05:03:25.837Z,25.97
2018-07-28T05:04:36.085Z,26.01
2018-07-28T05:05:47.362Z,26.04
2018-07-28T05:06:38.255Z,25.99
2018-07-28T05:07:46.559Z,25.93
2018-07-28T05:08:57.420Z,26.04
2018-07-28T05:10:05.416Z,25.98
2018-07-28T05:11:06.863Z,25.99
2018-07-28T05:13:13.941Z,26.04
2018-07-28T05:14:25.243Z,26.02
2018-07-28T05:15:39.765Z,25.98
2018-07-28T05:16:35.167Z,25.99
2018-07-28T05:17:37.940Z,25.97
2018-07-28T05:18:47.269Z,26.01
2018-07-28T05:20:56.914Z,25.94
2018-07-28T05:21:58.970Z,26.04
2018-07-28T05:23:07.785Z,25.97
2018-07-28T05:25:11.080Z,25.90
2018-07-28T05:26:32.183Z,25.89
2018-07-28T05:27:35.059Z,25.89
2018-07-28T05:28:34.354Z,25.86
2018-07-28T05:29:49.621Z,25.87
2018-07-28T05:30:42.460Z,25.84
2018-07-28T05:31:57.523Z,25.89
2018-07-28T05:32:53.742Z,25.84
2018-07-28T05:34:07.777Z,25.87
2018-07-28T05:35:11.890Z,25.87
2018-07-28T05:36:13.941Z,25.89
2018-07-28T05:37:26.959Z,25.87
2018-07-28T05:38:25.942Z,25.98
2018-07-28T05:39:23.087Z,25.94
2018-07-28T05:40:40.089Z,25.94
2018-07-28T05:41:33.852Z,26.01
2018-07-28T05:42:50.559Z,25.90
2018-07-28T05:43:51.480Z,25.91
2018-07-28T05:45:00.106Z,25.90
2018-07-28T05:47:12.499Z,25.90
2018-07-28T05:48:06.465Z,25.90
2018-07-28T05:49:23.068Z,25.87
2018-07-28T05:50:32.084Z,25.86
2018-07-28T05:51:30.250Z,25.86
2018-07-28T05:52:38.142Z,26.02
2018-07-28T05:53:38.152Z,26.02
2018-07-28T05:54:45.327Z,25.87
2018-07-28T05:55:51.281Z,25.94
2018-07-28T05:57:02.655Z,26.02
2018-07-28T05:58:10.346Z,26.04
2018-07-28T05:59:04.721Z,25.93
2018-07-28T06:01:18.049Z,25.99
2018-07-28T06:02:31.627Z,26.02
2018-07-28T06:03:38.141Z,26.02
2018-07-28T06:04:44.191Z,26.09
2018-07-28T06:05:43.893Z,25.99
2018-07-28T06:07:01.518Z,26.11
2018-07-28T06:08:00.296Z,26.11
2018-07-28T06:08:57.027Z,26.11
2018-07-28T06:09:56.320Z,26.18
2018-07-28T06:11:14.146Z,26.15
2018-07-28T06:12:16.717Z,26.22
2018-07-28T06:13:26.043Z,26.18
2018-07-28T06:15:40.296Z,26.29
2018-07-28T06:16:43.377Z,26.31
2018-07-28T06:17:42.258Z,26.35
2018-07-28T06:18:50.972Z,26.39
2018-07-28T06:20:11.503Z,26.44
2018-07-28T06:20:57.442Z,26.47
2018-07-28T06:23:14.455Z,26.47
2018-07-28T06:24:08.524Z,26.49
2018-07-28T06:25:21.541Z,26.52
2018-07-28T06:26:46.742Z,26.54
2018-07-28T06:27:38.865Z,26.50
2018-07-28T06:28:48.395Z,26.55
2018-07-28T06:29:39.903Z,26.55
2018-07-28T06:33:03.687Z,26.50
2018-07-28T06:34:06.668Z,26.67
2018-07-28T06:35:30.432Z,26.54
2018-07-28T06:37:39.154Z,26.52
2018-07-28T06:39:28.975Z,26.52
2018-07-28T06:41:00.174Z,26.62
2018-07-28T06:41:51.685Z,26.62
2018-07-28T06:42:59.169Z,26.61
2018-07-28T06:44:16.791Z,26.62
2018-07-28T06:46:13.838Z,26.64
2018-07-28T06:47:31.748Z,26.65
2018-07-28T06:50:48.384Z,26.62
2018-07-28T06:51:30.982Z,26.67
2018-07-28T06:52:41.433Z,26.69
2018-07-28T06:53:59.158Z,26.68
2018-07-28T06:54:52.509Z,26.68
2018-07-28T06:55:56.823Z,26.74
2018-07-28T06:57:05.845Z,26.73
2018-07-28T06:58:31.970Z,26.77
2018-07-28T06:59:04.835Z,26.77
2018-07-28T07:00:36.182Z,26.73
2018-07-28T07:01:49.807Z,26.73
2018-07-28T07:02:32.514Z,26.81
2018-07-28T07:03:38.664Z,26.76
2018-07-28T07:06:49.546Z,26.77
2018-07-28T07:07:58.769Z,26.80
2018-07-28T07:09:02.156Z,26.79
2018-07-28T07:11:30.263Z,26.74
2018-07-28T07:12:15.901Z,26.68
2018-07-28T07:14:33.940Z,26.73
2018-07-28T07:15:31.392Z,26.67
2018-07-28T07:16:45.640Z,26.68
2018-07-28T07:17:53.633Z,26.65
2018-07-28T07:18:52.714Z,26.61
2018-07-28T07:19:50.675Z,26.61
2018-07-28T07:21:17.104Z,26.52
2018-07-28T07:22:26.021Z,26.55
2018-07-28T07:24:34.128Z,26.54
2018-07-28T07:25:23.074Z,26.54
2018-07-28T07:26:31.378Z,26.50
2018-07-28T07:27:41.627Z,26.50
2018-07-28T07:28:46.656Z,26.43
2018-07-28T07:29:51.681Z,26.39
2018-07-28T07:30:47.388Z,26.39
2018-07-28T07:31:51.084Z,26.32
2018-07-28T07:33:03.589Z,26.36
2018-07-28T07:34:30.221Z,26.29
2018-07-28T07:35:10.874Z,26.36
2018-07-28T07:36:41.397Z,26.35
2018-07-28T07:37:26.661Z,26.31
2018-07-28T07:38:36.091Z,26.39
2018-07-28T07:39:44.291Z,26.32
2018-07-28T07:40:55.565Z,26.35
2018-07-28T07:43:00.807Z,26.31
2018-07-28T07:43:53.654Z,26.25
2018-07-28T07:44:57.752Z,26.28
2018-07-28T07:46:03.597Z,26.29
2018-07-28T07:47:15.201Z,26.24
2018-07-28T07:48:29.933Z,26.21
2018-07-28T07:49:27.275Z,26.18
2018-07-28T07:50:35.679Z,26.18
2018-07-28T07:51:37.531Z,26.12
2018-07-28T07:52:47.678Z,26.21
2018-07-28T07:53:55.947Z,26.15
2018-07-28T07:57:11.166Z,25.97
2018-07-28T07:58:06.161Z,25.89
2018-07-28T07:59:23.262Z,25.80
2018-07-28T08:02:39.059Z,25.72
2018-07-28T08:03:46.648Z,25.57
2018-07-28T08:04:47.684Z,25.49
2018-07-28T08:05:58.438Z,25.43
2018-07-28T08:07:01.109Z,25.44
2018-07-28T08:08:05.837Z,25.32
2018-07-28T08:09:08.298Z,25.25
2018-07-28T08:10:14.449Z,25.30
2018-07-28T08:11:25.621Z,25.16
2018-07-28T08:14:42.031Z,25.07
2018-07-28T08:15:36.508Z,25.09
2018-07-28T08:16:45.327Z,25.02
2018-07-28T08:17:59.567Z,25.01
2018-07-28T08:18:52.511Z,25.02
2018-07-28T08:20:06.754Z,25.02
2018-07-28T08:21:02.706Z,25.00
2018-07-28T08:22:17.215Z,25.05
2018-07-28T08:23:34.738Z,25.05
2018-07-28T08:24:40.889Z,24.98
2018-07-28T08:25:38.746Z,24.97
2018-07-28T08:28:54.236Z,25.12
2018-07-28T08:29:55.920Z,25.10
2018-07-28T08:32:30.209Z,25.15
2018-07-28T08:33:20.599Z,25.13
2018-07-28T08:34:20.904Z,25.17
2018-07-28T08:35:27.775Z,25.22
2018-07-28T08:36:24.586Z,25.16
2018-07-28T08:38:35.177Z,25.24
2018-07-28T08:39:44.712Z,25.24
2018-07-28T08:41:08.890Z,25.28
2018-07-28T08:44:18.950Z,25.35
2018-07-28T08:45:26.236Z,25.38
2018-07-28T08:46:20.400Z,25.31
2018-07-28T08:48:24.821Z,25.32
2018-07-28T08:50:37.021Z,25.37
2018-07-28T08:51:42.663Z,25.31
2018-07-28T08:52:52.912Z,25.42
2018-07-28T08:53:54.969Z,25.34
2018-07-28T08:54:57.340Z,25.31
2018-07-28T08:56:13.213Z,25.37
2018-07-28T08:57:16.499Z,25.34
2018-07-28T08:58:13.440Z,25.34
2018-07-28T08:59:17.449Z,25.34
2018-07-28T09:00:32.604Z,25.37
2018-07-28T09:01:42.031Z,25.42
2018-07-28T09:02:45.419Z,25.38
2018-07-28T09:03:57.209Z,25.32
2018-07-28T09:04:51.073Z,25.31
2018-07-28T09:06:08.957Z,25.25
2018-07-28T09:07:05.228Z,25.27
2018-07-28T09:08:11.166Z,25.25
2018-07-28T09:09:19.313Z,25.32
2018-07-28T09:10:17.476Z,25.28
2018-07-28T09:11:22.561Z,25.28
2018-07-28T09:12:35.481Z,25.25
2018-07-28T09:14:39.791Z,25.24
2018-07-28T09:16:03.865Z,25.24
2018-07-28T09:17:09.097Z,25.17
2018-07-28T09:18:01.641Z,25.24
2018-07-28T09:21:16.815Z,25.28
2018-07-28T09:22:16.311Z,25.32
2018-07-28T09:23:18.023Z,25.24
2018-07-28T09:25:33.641Z,25.25
2018-07-28T09:26:49.729Z,25.25
2018-07-28T09:27:54.758Z,25.24
2018-07-28T09:29:00.512Z,25.17
2018-07-28T09:30:11.737Z,25.16
2018-07-28T09:31:24.274Z,25.16
2018-07-28T09:32:08.103Z,25.16
2018-07-28T09:33:22.142Z,25.19
2018-07-28T09:34:27.066Z,25.15
2018-07-28T09:35:23.898Z,25.17
2018-07-28T09:37:44.601Z,25.25
2018-07-28T09:38:59.358Z,25.27
2018-07-28T09:39:52.811Z,25.27
2018-07-28T09:41:18.525Z,25.27
2018-07-28T09:42:01.740Z,25.28
2018-07-28T09:43:10.873Z,25.32
2018-07-28T09:44:11.498Z,25.38
2018-07-28T09:45:18.665Z,25.35
2018-07-28T09:46:22.088Z,25.47
2018-07-28T09:48:28.215Z,25.44
2018-07-28T09:50:51.276Z,25.46
2018-07-28T09:51:38.280Z,25.52
2018-07-28T09:54:12.704Z,25.61
2018-07-28T09:55:10.568Z,25.69
2018-07-28T09:56:16.596Z,25.72
2018-07-28T09:58:12.737Z,25.89
2018-07-28T09:59:22.576Z,25.84
2018-07-28T10:00:32.311Z,25.89
2018-07-28T10:01:35.084Z,25.86
2018-07-28T10:02:42.059Z,25.99
2018-07-28T10:03:42.885Z,25.94
2018-07-28T10:04:52.007Z,26.01
2018-07-28T10:05:57.343Z,26.12
2018-07-28T10:06:58.583Z,26.15
2018-07-28T10:08:06.265Z,26.17
2018-07-28T10:09:10.472Z,26.18
2018-07-28T10:10:24.717Z,26.24
2018-07-28T10:11:24.422Z,26.36
2018-07-28T10:12:37.641Z,26.28
2018-07-28T10:13:37.338Z,26.37
2018-07-28T10:14:40.729Z,26.36
2018-07-28T10:15:46.267Z,26.50
2018-07-28T10:17:08.208Z,26.55
2018-07-28T10:18:03.383Z,26.50
2018-07-28T10:18:59.095Z,26.54
2018-07-28T10:21:22.660Z,26.64
2018-07-28T10:22:16.627Z,26.64
2018-07-28T10:23:28.514Z,26.69
2018-07-28T10:25:39.793Z,26.68
2018-07-28T10:26:42.772Z,26.79
2018-07-28T10:27:44.834Z,26.79
2018-07-28T10:28:46.064Z,26.77
2018-07-28T10:29:55.905Z,26.65
2018-07-28T10:31:11.480Z,26.79
2018-07-28T10:32:05.550Z,26.64
2018-07-28T10:33:11.294Z,26.65
2018-07-28T10:35:20.939Z,26.74
2018-07-28T10:37:40.924Z,26.76
2018-07-28T10:38:42.875Z,26.74
2018-07-28T10:41:07.473Z,26.67
2018-07-28T10:41:59.190Z,26.69
2018-07-28T10:43:06.979Z,26.77
2018-07-28T10:44:17.538Z,26.68
2018-07-28T10:45:15.607Z,26.80
2018-07-28T10:46:33.544Z,26.69
2018-07-28T10:47:40.908Z,26.77
2018-07-28T10:49:59.675Z,26.79
2018-07-28T10:50:39.092Z,26.81
2018-07-28T10:52:06.337Z,26.91
2018-07-28T10:52:53.857Z,26.79
2018-07-28T10:54:44.858Z,26.89
2018-07-28T10:55:22.466Z,26.91
2018-07-28T10:56:18.049Z,26.95
2018-07-28T10:57:14.576Z,27.01
2018-07-28T10:58:23.697Z,27.01
2018-07-28T10:59:53.403Z,27.02
2018-07-28T11:00:54.131Z,27.10
2018-07-28T11:01:40.008Z,27.16
2018-07-28T11:02:43.086Z,27.23
2018-07-28T11:03:42.992Z,27.19
2018-07-28T11:06:07.077Z,27.33
2018-07-28T11:07:05.247Z,27.31
2018-07-28T11:08:21.637Z,27.38
2018-07-28T11:09:18.490Z,27.43
2018-07-28T11:11:36.103Z,27.57
2018-07-28T11:12:47.174Z,27.50
2018-07-28T11:13:33.257Z,27.58
2018-07-28T11:14:45.037Z,27.59
2018-07-28T11:15:44.328Z,27.57
2018-07-28T11:16:57.449Z,27.59
2018-07-28T11:17:55.409Z,27.62
2018-07-28T11:19:18.355Z,27.62
2018-07-28T11:20:12.525Z,27.61
2018-07-28T11:21:22.676Z,27.73
2018-07-28T11:22:30.674Z,27.66
2018-07-28T11:23:37.023Z,27.70
2018-07-28T11:24:28.325Z,27.76
2018-07-28T11:25:44.408Z,27.76
2018-07-28T11:26:52.199Z,27.77
2018-07-28T11:27:51.081Z,27.85
2018-07-28T11:28:59.795Z,27.79
2018-07-28T11:30:01.031Z,27.88
2018-07-28T11:31:20.497Z,27.86
2018-07-28T11:32:29.932Z,27.84
2018-07-28T11:33:23.869Z,27.84
2018-07-28T11:34:25.128Z,27.94
2018-07-28T11:35:34.975Z,27.88
2018-07-28T11:36:38.463Z,27.96
2018-07-28T11:37:47.787Z,27.94
2018-07-28T11:38:50.458Z,27.88
2018-07-28T11:39:50.154Z,27.86
2018-07-28T11:40:54.159Z,28.04
2018-07-28T11:42:11.579Z,28.06
2018-07-28T11:43:11.176Z,28.09
2018-07-28T11:46:34.444Z,28.17
2018-07-28T11:47:33.048Z,28.13
2018-07-28T11:48:47.878Z,28.13
2018-07-28T11:49:55.772Z,28.25
2018-07-28T11:50:51.488Z,28.28
2018-07-28T11:52:57.334Z,28.36
2018-07-28T11:54:03.177Z,28.47
2018-07-28T11:55:15.984Z,28.56
2018-07-28T11:56:29.407Z,28.50
2018-07-28T11:58:30.338Z,28.68
2018-07-28T11:59:40.089Z,28.77
2018-07-28T12:01:44.889Z,28.91
2018-07-28T12:03:54.761Z,29.15
2018-07-28T12:05:02.562Z,29.29
2018-07-28T12:07:16.394Z,29.37
2018-07-28T12:08:17.637Z,29.47
2018-07-28T12:10:36.909Z,29.62
2018-07-28T12:11:37.220Z,29.74
2018-07-28T12:12:49.004Z,29.86
2018-07-28T12:13:37.849Z,29.90
2018-07-28T12:14:50.761Z,29.90
2018-07-28T12:16:00.505Z,29.89
2018-07-28T12:17:19.869Z,29.96
2018-07-28T12:18:15.720Z,29.97
2018-07-28T12:19:09.534Z,30.05
2018-07-28T12:20:15.890Z,30.02
2018-07-28T12:22:32.599Z,30.12
2018-07-28T12:23:47.967Z,30.23
2018-07-28T12:24:39.272Z,30.24
2018-07-28T12:25:47.884Z,30.27
2018-07-28T12:26:58.341Z,30.36
2018-07-28T12:28:05.818Z,30.40
2018-07-28T12:29:12.482Z,30.49
2018-07-28T12:30:20.989Z,30.45
2018-07-28T12:31:21.305Z,30.50
2018-07-28T12:32:21.319Z,30.49
2018-07-28T12:33:43.032Z,30.49
2018-07-28T12:34:36.397Z,30.52
2018-07-28T12:35:33.943Z,30.45
2018-07-28T12:36:51.254Z,30.52
2018-07-28T12:38:56.090Z,30.54
2018-07-28T12:40:00.494Z,30.59
2018-07-28T12:42:07.994Z,30.57
2018-07-28T12:43:18.438Z,30.53
2018-07-28T12:44:21.726Z,30.62
2018-07-28T12:46:32.084Z,30.56
2018-07-28T12:47:48.282Z,30.57
2018-07-28T12:48:48.487Z,30.65
2018-07-28T12:49:45.426Z,30.64
2018-07-28T12:51:06.322Z,30.74
2018-07-28T12:52:08.378Z,30.81
2018-07-28T12:53:09.615Z,30.80
2018-07-28T12:54:14.133Z,30.96
2018-07-28T12:55:25.537Z,30.93
2018-07-28T12:57:33.076Z,31.11
2018-07-28T12:58:42.127Z,31.13
2018-07-28T12:59:46.639Z,31.21
2018-07-28T13:00:42.757Z,31.13
2018-07-28T13:01:58.024Z,31.15
2018-07-28T13:03:04.486Z,31.27
2018-07-28T13:04:07.976Z,31.24
2018-07-28T13:06:13.012Z,31.21
2018-07-28T13:09:32.906Z,31.26
2018-07-28T13:10:34.870Z,31.24
2018-07-28T13:12:46.587Z,31.23
2018-07-28T13:13:47.501Z,31.28
2018-07-28T13:17:07.335Z,31.26
2018-07-28T13:18:06.976Z,31.18
2018-07-28T13:21:29.840Z,31.36
2018-07-28T13:22:48.186Z,31.26
2018-07-28T13:23:45.787Z,31.20
2018-07-28T13:24:45.438Z,31.15
2018-07-28T13:26:07.867Z,30.99
2018-07-28T13:26:58.250Z,30.89
2018-07-28T13:28:18.534Z,30.93
2018-07-28T13:29:16.287Z,30.94
2018-07-28T13:30:19.367Z,30.91
2018-07-28T13:31:23.374Z,30.98
2018-07-28T13:32:25.841Z,30.96
2018-07-28T13:34:48.384Z,30.87
2018-07-28T13:35:47.059Z,30.84
2018-07-28T13:37:06.227Z,30.93
2018-07-28T13:38:56.618Z,30.98
2018-07-28T13:40:15.672Z,31.02
2018-07-28T13:41:13.534Z,31.02
2018-07-28T13:42:26.845Z,31.04
2018-07-28T13:43:30.849Z,31.06
2018-07-28T13:44:28.296Z,31.12
2018-07-28T13:45:33.637Z,31.15
2018-07-28T13:46:56.383Z,31.02
2018-07-28T13:47:52.073Z,31.01
2018-07-28T13:48:53.215Z,30.96
2018-07-28T13:51:15.556Z,30.91
2018-07-28T13:52:05.220Z,30.87
2018-07-28T13:53:27.680Z,30.84
2018-07-28T13:54:12.818Z,30.86
2018-07-28T13:55:30.437Z,30.78
2018-07-28T13:56:23.485Z,30.76
2018-07-28T13:57:38.546Z,30.80
2018-07-28T13:59:45.629Z,30.81
2018-07-28T14:00:55.058Z,30.78
2018-07-28T14:02:02.441Z,30.72
2018-07-28T14:03:01.734Z,30.67
2018-07-28T14:04:18.946Z,30.71
2018-07-28T14:05:22.750Z,30.61
2018-07-28T14:07:19.898Z,30.65
2018-07-28T14:08:30.866Z,30.54
2018-07-28T14:09:37.120Z,30.57
2018-07-28T14:11:51.679Z,30.64
2018-07-28T14:12:54.656Z,30.59
2018-07-28T14:14:05.130Z,30.59
2018-07-28T14:15:16.688Z,30.65
2018-07-28T14:16:18.235Z,30.64
2018-07-28T14:17:12.516Z,30.62
2018-07-28T14:18:25.486Z,30.52
2018-07-28T14:20:30.769Z,30.52
2018-07-28T14:21:35.891Z,30.56
2018-07-28T14:22:42.760Z,30.46
2018-07-28T14:23:43.589Z,30.38
2018-07-28T14:25:55.998Z,30.46
2018-07-28T14:27:11.265Z,30.37
2018-07-28T14:28:06.563Z,30.37
2018-07-28T14:29:12.308Z,30.46
2018-07-28T14:32:27.488Z,30.59
2018-07-28T14:33:42.655Z,30.53
2018-07-28T14:34:52.079Z,30.53
2018-07-28T14:35:46.358Z,30.54
2018-07-28T14:37:02.952Z,30.62
2018-07-28T14:37:54.868Z,30.59
2018-07-28T14:39:08.703Z,30.54
2018-07-28T14:41:22.851Z,30.56
2018-07-28T14:42:13.745Z,30.61
2018-07-28T14:43:28.506Z,30.61
2018-07-28T14:44:33.126Z,30.62
2018-07-28T14:45:43.573Z,30.62
2018-07-28T14:46:47.061Z,30.76
2018-07-28T14:47:59.048Z,30.81
2018-07-28T14:48:46.051Z,30.75
2018-07-28T14:50:01.933Z,30.76
2018-07-28T14:51:04.401Z,30.86
2018-07-28T14:52:01.335Z,30.91
2018-07-28T14:53:32.577Z,30.99
2018-07-28T14:54:20.195Z,30.93
2018-07-28T14:56:32.092Z,30.91
2018-07-28T14:57:36.119Z,30.98
2018-07-28T14:58:42.766Z,30.94
2018-07-28T14:59:42.641Z,30.96
2018-07-28T15:01:59.174Z,30.94
2018-07-28T15:03:01.885Z,30.86
2018-07-28T15:05:12.007Z,30.96
2018-07-28T15:06:30.237Z,30.87
2018-07-28T15:07:28.518Z,30.81
2018-07-28T15:09:38.456Z,30.78
2018-07-28T15:10:45.649Z,30.72
2018-07-28T15:11:46.155Z,30.74
2018-07-28T15:14:12.795Z,30.61
2018-07-28T15:15:06.862Z,30.59
2018-07-28T15:16:21.008Z,30.57
2018-07-28T15:17:18.245Z,30.47
2018-07-28T15:19:40.188Z,30.46
2018-07-28T15:20:31.074Z,30.27
2018-07-28T15:22:41.233Z,30.40
2018-07-28T15:23:48.817Z,30.29
2018-07-28T15:24:52.404Z,30.24
2018-07-28T15:26:05.834Z,30.29
2018-07-28T15:27:17.817Z,30.18
2018-07-28T15:28:17.015Z,30.12
2018-07-28T15:29:14.048Z,30.14
2018-07-28T15:30:21.839Z,30.05
2018-07-28T15:31:32.269Z,30.05
2018-07-28T15:32:28.689Z,29.97
2018-07-28T15:33:36.199Z,29.89
2018-07-28T15:34:41.021Z,29.87
2018-07-28T15:35:50.864Z,29.82
2018-07-28T15:36:59.399Z,29.89
2018-07-28T15:38:06.958Z,29.87
2018-07-28T15:39:11.983Z,29.84
2018-07-28T15:41:26.148Z,29.75
2018-07-28T15:42:26.753Z,29.78
2018-07-28T15:43:27.279Z,29.74
2018-07-28T15:44:34.146Z,29.77
2018-07-28T15:45:39.787Z,29.72
2018-07-28T15:46:37.643Z,29.74
2018-07-28T15:47:50.420Z,29.77
2018-07-28T15:49:09.416Z,29.82
2018-07-28T15:50:01.750Z,29.72
2018-07-28T15:51:10.653Z,29.84
2018-07-28T15:52:08.203Z,29.82
2018-07-28T15:53:18.658Z,29.82
2018-07-28T15:54:15.386Z,29.75
2018-07-28T15:55:25.126Z,29.77
2018-07-28T15:56:34.659Z,29.66
2018-07-28T15:57:39.308Z,29.78
2018-07-28T15:58:44.400Z,29.71
2018-07-28T15:59:54.548Z,29.71
2018-07-28T16:00:51.894Z,29.68
2018-07-28T16:02:02.562Z,29.62
2018-07-28T16:03:11.264Z,29.57
2018-07-28T16:04:12.528Z,29.62